Time;durP1;ratioP1;P1;durP2;ratioP2;P2;SDS_P1;SDS_P2;PMS_P1;PMS_P2;Temp;Humidity;BMP_temperature;BMP_pressure;BME280_temperature;BME280_humidity;BME280_pressure;Samples;Min_cycle;Max_cycle;Signal;HPM_P1;HPM_P2
2022/07/01 00:00:20;;;;;;;4.85;3.13;;;;;;;23.13;45.20;101295.19;4955975;29;20050;-65
2022/07/01 00:02:45;;;;;;;5.70;3.47;;;;;;;23.10;45.47;101280.03;4955750;28;20023;-65
2022/07/01 00:05:10;;;;;;;5.15;3.30;;;;;;;23.08;45.67;101287.59;4939695;28;20023;-65
2022/07/01 00:07:36;;;;;;;7.28;4.50;;;;;;;23.06;45.85;101288.84;4955801;29;20031;-66
2022/07/01 00:10:01;;;;;;;7.38;4.13;;;;;;;23.07;46.15;101287.78;4956935;28;20106;-65
2022/07/01 00:12:27;;;;;;;7.18;3.75;;;;;;;23.08;45.44;101281.28;4955444;28;20044;-66
2022/07/01 00:14:52;;;;;;;7.43;4.05;;;;;;;23.12;45.65;101283.41;4955791;29;20031;-65
2022/07/01 00:17:17;;;;;;;7.88;3.80;;;;;;;23.13;45.76;101279.63;4939613;29;20043;-65
2022/07/01 00:19:43;;;;;;;7.15;4.55;;;;;;;23.16;46.29;101268.31;4956824;28;20059;-66
2022/07/01 00:22:08;;;;;;;13.82;4.93;;;;;;;23.17;46.64;101274.63;4955596;29;20490;-65
2022/07/01 00:24:34;;;;;;;13.60;5.00;;;;;;;23.15;46.06;101260.28;4939552;29;20429;-65
2022/07/01 00:26:59;;;;;;;12.02;4.60;;;;;;;23.17;46.25;101263.69;4956611;28;20054;-65
2022/07/01 00:29:24;;;;;;;8.90;5.28;;;;;;;23.17;46.19;101263.69;4956652;28;20035;-65
2022/07/01 00:31:50;;;;;;;8.77;4.93;;;;;;;23.21;46.20;101264.94;4955287;28;20031;-65
2022/07/01 00:34:15;;;;;;;7.90;3.97;;;;;;;23.20;46.67;101252.31;4956602;28;20031;-66
2022/07/01 00:36:40;;;;;;;7.22;3.95;;;;;;;23.23;46.73;101262.84;4939272;29;20027;-65
2022/07/01 00:39:06;;;;;;;8.00;3.70;;;;;;;23.23;46.61;101262.84;4955245;29;20026;-66
2022/07/01 00:41:31;;;;;;;9.55;3.35;;;;;;;23.25;45.73;101277.19;4955281;29;20509;-66
2022/07/01 00:43:57;;;;;;;8.27;3.38;;;;;;;23.21;46.31;101275.88;4955173;29;20377;-66
2022/07/01 00:46:26;;;;;;;9.63;3.30;;;;;;;23.20;46.72;101285.97;4955175;29;20105;-66
2022/07/01 00:48:55;;;;;;;4.57;2.55;;;;;;;23.14;45.68;101285.94;4970804;28;20023;-65
2022/07/01 00:51:20;;;;;;;4.10;2.58;;;;;;;23.17;45.70;101307.41;4939019;29;20027;-65
2022/07/01 00:53:47;;;;;;;11.05;2.53;;;;;;;23.10;46.19;101307.34;4955024;29;20033;-65
2022/07/01 00:56:12;;;;;;;6.22;2.67;;;;;;;23.07;46.78;101317.84;4954914;29;20027;-66
2022/07/01 00:58:38;;;;;;;4.35;2.45;;;;;;;23.07;46.30;101328.78;4956201;28;20026;-67
2022/07/01 01:01:03;;;;;;;4.95;2.25;;;;;;;23.01;46.36;101318.63;4938877;29;20065;-65
2022/07/01 01:03:30;;;;;;;3.88;2.30;;;;;;;23.01;46.14;101329.56;4954896;29;20086;-65
2022/07/01 01:05:56;;;;;;;4.05;2.47;;;;;;;22.97;46.01;101317.34;4938686;29;20043;-65
2022/07/01 01:08:22;;;;;;;3.72;2.08;;;;;;;22.99;46.08;101307.06;4954802;29;20035;-65
2022/07/01 01:10:47;;;;;;;7.63;2.15;;;;;;;22.99;46.21;101305.19;4954722;29;20031;-65
2022/07/01 01:13:13;;;;;;;3.70;1.95;;;;;;;22.96;46.11;101308.31;4938433;29;20043;-65
2022/07/01 01:15:38;;;;;;;3.25;1.60;;;;;;;22.92;46.67;101300.72;4954001;28;20059;-65
2022/07/01 01:18:04;;;;;;;3.22;1.52;;;;;;;22.90;46.32;101311.81;4954579;29;20027;-65
2022/07/01 01:20:34;;;;;;;2.17;1.52;;;;;;;22.86;46.06;101309.69;4954488;29;20034;-65
2022/07/01 01:23:00;;;;;;;1.95;1.70;;;;;;;22.86;46.16;101320.63;4938460;29;20031;-65
2022/07/01 01:25:25;;;;;;;5.07;1.38;;;;;;;22.84;46.09;101317.22;4938471;29;20441;-65
2022/07/01 01:27:51;;;;;;;2.60;1.55;;;;;;;22.77;46.39;101319.91;4954319;29;20113;-65
2022/07/01 01:30:16;;;;;;;1.90;1.40;;;;;;;22.77;46.51;101327.25;4955619;28;20035;-65
2022/07/01 01:32:42;;;;;;;1.35;1.25;;;;;;;22.75;46.66;101335.66;4954160;28;20055;-66
2022/07/01 01:35:09;;;;;;;3.67;1.25;;;;;;;22.69;45.99;101332.84;4938237;29;20030;-66
2022/07/01 01:37:34;;;;;;;2.15;1.40;;;;;;;22.67;46.83;101316.66;4938210;29;20031;-65
2022/07/01 01:40:00;;;;;;;3.13;1.13;;;;;;;22.66;46.38;101319.59;4938282;29;20031;-65
2022/07/01 01:42:25;;;;;;;4.88;1.30;;;;;;;22.64;46.27;101316.22;4954317;29;20497;-65
2022/07/01 01:44:50;;;;;;;2.53;1.40;;;;;;;22.66;46.16;101335.97;4938189;29;20033;-65
2022/07/01 01:47:16;;;;;;;3.72;1.60;;;;;;;22.57;46.26;101322.44;4955281;28;20031;-65
2022/07/01 01:49:41;;;;;;;2.70;1.70;;;;;;;22.52;46.49;101322.16;4954115;29;20030;-65
2022/07/01 01:52:07;;;;;;;1.73;1.60;;;;;;;22.52;46.70;101335.81;4954083;29;20501;-65
2022/07/01 01:54:32;;;;;;;6.13;2.13;;;;;;;22.52;46.51;101337.72;4954089;28;20023;-66
2022/07/01 01:56:58;;;;;;;5.60;1.80;;;;;;;22.54;46.66;101341.94;4953970;29;20481;-65
2022/07/01 01:59:23;;;;;;;4.45;2.42;;;;;;;22.54;46.58;101336.47;4954081;29;20118;-66
2022/07/01 02:01:48;;;;;;;2.60;1.50;;;;;;;22.55;46.10;101345.50;4955200;28;20031;-65
2022/07/01 02:04:14;;;;;;;4.07;1.60;;;;;;;22.54;46.83;101352.00;4970175;28;20034;-65
2022/07/01 02:06:42;;;;;;;2.42;1.73;;;;;;;22.50;47.06;101340.63;4938108;29;20174;-66
2022/07/01 02:09:08;;;;;;;3.50;1.52;;;;;;;22.53;46.07;101334.75;4955138;28;20113;-66
2022/07/01 02:11:34;;;;;;;5.53;2.05;;;;;;;22.52;46.80;101335.81;4953812;29;20028;-65
2022/07/01 02:13:59;;;;;;;2.38;1.55;;;;;;;22.50;46.81;101326.13;4953876;29;20397;-66
2022/07/01 02:16:24;;;;;;;4.72;2.08;;;;;;;22.53;47.05;101332.03;4953896;29;20069;-65
2022/07/01 02:18:51;;;;;;;4.45;1.60;;;;;;;22.52;46.70;101334.97;4954012;29;20059;-65
2022/07/01 02:21:16;;;;;;;10.75;1.77;;;;;;;22.52;46.84;101327.63;4953825;29;20121;-65
2022/07/01 02:23:42;;;;;;;5.30;1.48;;;;;;;22.52;46.49;101330.38;4955067;28;20093;-65
2022/07/01 02:26:07;;;;;;;4.28;2.00;;;;;;;22.55;46.47;101329.13;4954441;28;20027;-66
2022/07/01 02:28:33;;;;;;;6.00;1.40;;;;;;;22.54;46.59;101328.28;4941581;29;20071;-65
2022/07/01 02:30:58;;;;;;;5.10;1.75;;;;;;;22.57;46.68;101329.78;4958816;28;20393;-65
2022/07/01 02:33:24;;;;;;;3.00;1.48;;;;;;;22.56;46.87;101339.00;4957592;29;20031;-65
2022/07/01 02:35:49;;;;;;;4.25;1.55;;;;;;;22.53;46.60;101337.50;4957533;29;20508;-65
2022/07/01 02:38:15;;;;;;;5.70;1.65;;;;;;;22.47;46.36;101343.72;4957533;29;20110;-65
2022/07/01 02:40:41;;;;;;;3.38;1.95;;;;;;;22.50;45.96;101365.19;4957514;29;20157;-65
2022/07/01 02:43:07;;;;;;;2.95;1.52;;;;;;;22.48;46.71;101378.19;4958512;28;20425;-66
2022/07/01 02:45:32;;;;;;;6.97;1.65;;;;;;;22.47;47.10;101387.41;4957404;29;20034;-66
2022/07/01 02:47:58;;;;;;;4.80;2.00;;;;;;;22.46;46.26;101385.75;4941243;29;20031;-66
2022/07/01 02:50:23;;;;;;;2.13;1.58;;;;;;;22.46;46.87;101384.91;4941157;29;20073;-65
2022/07/01 02:52:49;;;;;;;5.35;1.83;;;;;;;22.45;46.67;101389.50;4957176;29;20033;-65
2022/07/01 02:55:14;;;;;;;5.55;1.52;;;;;;;22.44;47.23;101404.22;4957236;29;20396;-65
2022/07/01 02:57:40;;;;;;;8.38;2.25;;;;;;;22.45;47.10;101405.88;4958361;28;20031;-65
2022/07/01 03:00:08;;;;;;;5.90;1.98;;;;;;;22.40;46.59;101385.66;4958291;28;20031;-65
2022/07/01 03:02:34;;;;;;;3.58;1.60;;;;;;;22.37;47.17;101384.16;4958422;28;20086;-65
2022/07/01 03:05:00;;;;;;;3.20;1.90;;;;;;;22.33;46.55;101371.94;4940934;29;20027;-65
2022/07/01 03:07:25;;;;;;;2.08;1.80;;;;;;;22.30;47.17;101353.22;4956863;28;20090;-65
2022/07/01 03:09:51;;;;;;;4.65;1.63;;;;;;;22.30;46.94;101358.69;4940871;29;20027;-65
2022/07/01 03:12:27;;;;;;;5.43;2.22;;;;;;;22.33;46.93;101374.69;4956696;29;20085;-65
2022/07/01 03:15:00;;;;;;;6.35;1.98;;;;;;;22.31;46.79;101390.38;4956985;29;20070;-65
2022/07/01 03:17:27;;;;;;;5.80;2.05;;;;;;;22.26;46.21;101390.13;4956850;29;20031;-65
2022/07/01 03:19:53;;;;;;;7.32;1.88;;;;;;;22.27;46.87;101402.75;4957841;28;20023;-65
2022/07/01 03:22:20;;;;;;;4.28;2.30;;;;;;;22.20;46.77;101390.03;4956702;29;20022;-66
2022/07/01 03:24:46;;;;;;;2.72;1.60;;;;;;;22.18;47.09;101397.56;4940726;29;20027;-66
2022/07/01 03:27:11;;;;;;;3.35;2.20;;;;;;;22.16;46.80;101405.97;4956603;29;20030;-65
2022/07/01 03:29:36;;;;;;;7.45;2.03;;;;;;;22.15;46.80;101415.19;4956626;29;20385;-65
2022/07/01 03:32:02;;;;;;;7.18;3.38;;;;;;;22.11;46.46;101422.03;4940502;29;20401;-66
2022/07/01 03:34:28;;;;;;;4.93;2.25;;;;;;;22.11;47.16;101427.50;4957894;28;20031;-65
2022/07/01 03:36:53;;;;;;;7.65;2.05;;;;;;;22.14;47.01;101432.56;4956494;29;20023;-65
2022/07/01 03:39:18;;;;;;;3.45;2.28;;;;;;;22.16;46.90;101433.25;4955712;28;20114;-65
2022/07/01 03:41:44;;;;;;;4.65;2.00;;;;;;;22.19;47.27;101419.22;4940274;29;20023;-66
2022/07/01 03:44:09;;;;;;;5.68;2.22;;;;;;;22.17;47.62;101415.81;4956259;29;20023;-65
2022/07/01 03:46:35;;;;;;;10.48;2.42;;;;;;;22.19;46.75;101408.31;4956210;28;20034;-66
2022/07/01 03:49:01;;;;;;;6.18;2.17;;;;;;;22.22;46.56;101413.38;4956240;29;20023;-65
2022/07/01 03:51:27;;;;;;;5.55;1.90;;;;;;;22.20;47.41;101418.19;4956097;29;20027;-65
2022/07/01 03:56:36;;;;;;;4.18;1.83;;;;;;;22.19;46.87;101421.97;4956328;29;20046;-65
2022/07/01 03:59:02;;;;;;;3.55;1.55;;;;;;;22.17;47.26;101413.09;4956094;29;20023;-65
2022/07/01 04:01:27;;;;;;;4.72;2.45;;;;;;;22.18;46.64;101430.31;4957296;28;20027;-66
2022/07/01 04:03:53;;;;;;;9.80;2.00;;;;;;;22.16;47.02;101426.94;4955972;29;20023;-65
2022/07/01 04:06:18;;;;;;;4.28;1.80;;;;;;;22.19;46.49;101419.22;4956051;29;20461;-65
2022/07/01 04:08:43;;;;;;;6.15;2.13;;;;;;;22.16;47.06;101418.75;4955892;29;20477;-65
2022/07/01 04:11:09;;;;;;;7.72;2.40;;;;;;;22.15;47.08;101422.50;4955828;29;20031;-66
2022/07/01 04:13:37;;;;;;;6.03;1.77;;;;;;;22.14;46.42;101424.38;4939510;29;20154;-66
2022/07/01 04:16:02;;;;;;;2.10;1.60;;;;;;;22.15;47.12;101417.91;4956920;28;20037;-66
2022/07/01 04:18:28;;;;;;;3.63;1.70;;;;;;;22.17;46.90;101409.50;4955701;29;20047;-66
2022/07/01 04:23:38;;;;;;;3.33;2.10;;;;;;;22.22;47.24;101420.72;4956693;29;20441;-65
2022/07/01 04:26:03;;;;;;;3.83;2.38;;;;;;;22.23;47.20;101423.25;4955581;29;20027;-65
2022/07/01 04:28:28;;;;;;;10.30;1.98;;;;;;;22.26;47.04;101424.75;4955483;29;20474;-65
2022/07/01 04:30:54;;;;;;;6.10;1.80;;;;;;;22.31;46.88;101420.41;4939423;29;20070;-65
2022/07/01 04:33:19;;;;;;;4.07;1.83;;;;;;;22.31;46.36;101420.41;4956496;28;20385;-65
2022/07/01 04:35:44;;;;;;;2.35;1.85;;;;;;;22.35;46.98;101434.53;4956513;28;20091;-65
2022/07/01 04:38:10;;;;;;;4.32;1.70;;;;;;;22.34;46.60;101430.09;4939214;29;20046;-65
2022/07/01 04:40:35;;;;;;;4.30;2.00;;;;;;;22.38;46.91;101435.00;4955281;29;20035;-66
2022/07/01 04:43:00;;;;;;;3.22;2.20;;;;;;;22.42;47.32;101433.56;4956385;28;20027;-66
2022/07/01 04:45:26;;;;;;;3.22;1.90;;;;;;;22.42;47.19;101428.13;4955129;28;20027;-65
2022/07/01 04:47:51;;;;;;;2.70;1.92;;;;;;;22.45;46.90;101433.19;4971258;28;20102;-66
2022/07/01 04:50:16;;;;;;;3.80;1.88;;;;;;;22.50;46.87;101438.91;4954091;28;20027;-65
2022/07/01 04:52:42;;;;;;;8.57;2.10;;;;;;;22.55;46.47;101431.03;4938940;29;20397;-65
2022/07/01 04:55:08;;;;;;;3.83;1.65;;;;;;;22.58;46.35;101441.53;4954896;29;20477;-65
2022/07/01 04:57:33;;;;;;;3.65;1.92;;;;;;;22.64;46.48;101433.66;4938910;29;20054;-65
2022/07/01 04:59:59;;;;;;;4.75;1.77;;;;;;;22.59;46.65;101418.66;4956122;28;20027;-65
2022/07/01 05:02:24;;;;;;;9.75;1.92;;;;;;;22.66;46.70;101415.19;4954860;29;20073;-66
2022/07/01 05:04:49;;;;;;;2.85;1.70;;;;;;;22.70;46.75;101419.25;4938816;29;20402;-65
2022/07/01 05:07:31;;;;;;;7.18;2.22;;;;;;;22.72;46.63;101411.69;4938847;29;20038;-66
2022/07/01 05:09:58;;;;;;;3.42;1.77;;;;;;;22.75;47.41;101422.22;4940758;29;20062;-65
2022/07/01 05:12:24;;;;;;;3.83;1.67;;;;;;;22.80;46.30;101419.75;4954562;29;20493;-65
2022/07/01 05:14:49;;;;;;;8.35;1.80;;;;;;;22.83;46.01;101419.38;4954576;28;20034;-65
2022/07/01 05:17:15;;;;;;;5.22;2.20;;;;;;;22.89;47.00;101430.34;4954650;29;20035;-65
2022/07/01 05:22:24;;;;;;;5.55;2.10;;;;;;;22.93;46.61;101430.81;4955718;29;20401;-65
2022/07/01 05:24:50;;;;;;;6.50;2.20;;;;;;;22.92;46.10;101429.13;4954517;29;20027;-66
2022/07/01 05:27:15;;;;;;;7.30;1.60;;;;;;;22.96;46.76;101419.50;4938375;29;20097;-65
2022/07/01 05:29:40;;;;;;;5.65;1.50;;;;;;;22.96;46.07;101419.50;4938378;29;20050;-65
2022/07/01 05:32:06;;;;;;;3.97;1.58;;;;;;;22.98;47.02;101429.19;4954570;29;20042;-64
2022/07/01 05:34:32;;;;;;;2.45;2.25;;;;;;;23.01;46.59;101437.00;4954387;29;20385;-65
2022/07/01 05:36:58;;;;;;;5.75;1.58;;;;;;;23.10;45.92;101435.81;4938223;29;20123;-67
2022/07/01 05:39:23;;;;;;;4.60;2.30;;;;;;;23.26;46.15;101431.13;4954242;29;20114;-65
2022/07/01 05:41:49;;;;;;;5.65;2.08;;;;;;;23.41;45.64;101430.03;4938212;29;20485;-65
2022/07/01 05:44:14;;;;;;;4.70;1.85;;;;;;;23.52;46.40;101434.09;4970246;28;20393;-65
2022/07/01 05:46:40;;;;;;;4.22;1.63;;;;;;;23.58;46.35;101431.44;4954189;29;20031;-65
2022/07/01 05:49:05;;;;;;;3.30;1.73;;;;;;;23.60;45.95;101429.34;4938011;29;20373;-65
2022/07/01 05:51:31;;;;;;;8.02;2.10;;;;;;;23.75;46.01;101438.28;4955303;28;20030;-65
2022/07/01 05:53:56;;;;;;;6.88;1.70;;;;;;;23.83;45.73;101444.63;4954155;29;20027;-65
2022/07/01 05:56:22;;;;;;;4.45;2.03;;;;;;;23.75;45.68;101451.97;4954059;29;20122;-65
2022/07/01 05:58:48;;;;;;;4.65;2.00;;;;;;;23.76;45.94;101456.38;4954103;29;20023;-65
2022/07/01 06:01:13;;;;;;;4.88;1.90;;;;;;;23.72;45.83;101446.91;4937636;29;20031;-65
2022/07/01 06:03:38;;;;;;;9.80;2.53;;;;;;;23.73;45.46;101451.31;4955210;28;20389;-66
2022/07/01 06:06:04;;;;;;;3.88;1.88;;;;;;;23.69;46.06;101452.78;4954105;29;20106;-66
2022/07/01 06:08:29;;;;;;;7.93;1.83;;;;;;;23.71;45.82;101442.47;4953911;29;20031;-66
2022/07/01 06:10:55;;;;;;;2.58;1.55;;;;;;;23.76;45.26;101445.44;4953991;29;20042;-66
2022/07/01 06:13:20;;;;;;;7.07;1.90;;;;;;;23.85;45.96;101448.00;4937665;29;20078;-66
2022/07/01 06:15:46;;;;;;;4.53;2.10;;;;;;;24.03;45.35;101454.69;4953839;28;20488;-66
2022/07/01 06:18:11;;;;;;;6.22;2.03;;;;;;;23.92;45.63;101460.72;4953890;29;20106;-66
2022/07/01 06:20:36;;;;;;;4.95;1.98;;;;;;;23.90;45.62;101462.78;4953749;29;20071;-65
2022/07/01 06:23:02;;;;;;;9.35;2.22;;;;;;;24.25;45.29;101461.78;4953971;29;20027;-65
2022/07/01 06:25:27;;;;;;;3.42;1.92;;;;;;;24.54;44.86;101457.88;4953744;28;20031;-66
2022/07/01 06:27:53;;;;;;;3.05;1.88;;;;;;;24.69;44.61;101453.09;4953809;29;20027;-66
2022/07/01 06:30:18;;;;;;;3.65;1.73;;;;;;;24.72;44.54;101452.69;4953797;29;20027;-66
2022/07/01 06:32:43;;;;;;;3.90;2.00;;;;;;;24.85;44.62;101454.63;4954871;28;20031;-66
2022/07/01 06:35:09;;;;;;;3.28;1.70;;;;;;;25.14;44.54;101451.53;4953664;29;20050;-65
2022/07/01 06:37:35;;;;;;;6.10;2.13;;;;;;;25.33;43.76;101449.88;4953705;29;20379;-65
2022/07/01 06:40:03;;;;;;;4.35;1.90;;;;;;;25.68;43.72;101459.63;4954866;28;20114;-66
2022/07/01 06:42:28;;;;;;;5.15;1.60;;;;;;;25.96;43.23;101457.44;4953627;29;20102;-66
2022/07/01 06:44:54;;;;;;;5.53;1.95;;;;;;;26.20;42.74;101461.44;4953704;29;20058;-66
2022/07/01 06:47:19;;;;;;;6.55;3.33;;;;;;;26.45;42.96;101462.41;4954756;28;20035;-66
2022/07/01 06:49:44;;;;;;;4.68;2.30;;;;;;;26.71;42.70;101455.09;4937496;29;20031;-66
2022/07/01 06:52:10;;;;;;;6.72;2.33;;;;;;;26.82;42.21;101463.53;4954759;28;20103;-66
2022/07/01 06:54:39;;;;;;;6.90;1.80;;;;;;;26.65;42.91;101472.47;4953576;29;20082;-67
2022/07/01 06:57:05;;;;;;;2.75;1.35;;;;;;;26.73;42.77;101467.56;4953529;29;20023;-66
2022/07/01 06:59:31;;;;;;;3.50;1.73;;;;;;;26.78;42.67;101467.75;4953605;29;20027;-66
2022/07/01 07:01:56;;;;;;;5.53;1.50;;;;;;;26.71;42.60;101460.59;4937409;29;20110;-66
2022/07/01 07:04:22;;;;;;;6.07;1.83;;;;;;;26.56;42.86;101463.63;4953458;28;20020;-66
2022/07/01 07:06:47;;;;;;;2.97;1.30;;;;;;;26.38;42.91;101469.81;4953618;29;20042;-67
2022/07/01 07:09:13;;;;;;;3.88;1.50;;;;;;;26.23;42.49;101471.13;4953470;29;20023;-67
2022/07/01 07:11:38;;;;;;;4.47;1.50;;;;;;;26.10;42.68;101474.75;4953358;29;20039;-66
2022/07/01 07:14:03;;;;;;;6.68;1.38;;;;;;;25.96;42.80;101484.06;4938776;29;20536;-67
2022/07/01 07:16:29;;;;;;;3.03;1.92;;;;;;;25.86;42.56;101489.13;4940999;29;20039;-66
2022/07/01 07:18:54;;;;;;;4.85;1.40;;;;;;;25.89;42.26;101486.81;4956901;29;20023;-66
2022/07/01 07:21:19;;;;;;;9.35;1.85;;;;;;;26.07;41.89;101496.28;4956694;29;20023;-66
2022/07/01 07:23:45;;;;;;;8.30;2.47;;;;;;;26.27;41.65;101497.94;4956821;29;20031;-66
2022/07/01 07:26:10;;;;;;;5.32;2.55;;;;;;;26.60;41.77;101503.34;4956617;29;20039;-66
2022/07/01 07:28:36;;;;;;;3.65;1.83;;;;;;;26.82;40.98;101496.53;4956755;29;20424;-66
2022/07/01 07:31:01;;;;;;;3.50;1.52;;;;;;;26.84;41.41;101494.38;4956635;29;20033;-66
2022/07/01 07:33:26;;;;;;;5.88;1.48;;;;;;;27.14;41.24;101506.47;4957628;28;20027;-66
2022/07/01 07:35:52;;;;;;;5.43;1.40;;;;;;;27.58;40.25;101493.72;4940387;29;20027;-67
2022/07/01 07:38:17;;;;;;;4.70;1.40;;;;;;;27.85;39.71;101486.88;4956370;29;20027;-66
2022/07/01 07:40:43;;;;;;;2.97;1.10;;;;;;;28.00;39.87;101487.34;4940349;29;20026;-66
2022/07/01 07:43:08;;;;;;;8.57;1.30;;;;;;;28.42;38.85;101498.63;4956434;29;20070;-66
2022/07/01 07:45:34;;;;;;;3.88;0.98;;;;;;;28.41;38.91;101502.44;4957544;28;20023;-66
2022/07/01 07:48:00;;;;;;;1.92;0.90;;;;;;;28.96;38.39;101511.50;4956416;29;20066;-66
2022/07/01 07:50:26;;;;;;;3.70;1.20;;;;;;;29.16;38.50;101501.88;4956163;28;20034;-66
2022/07/01 07:52:51;;;;;;;3.65;0.95;;;;;;;29.38;38.20;101516.88;4956090;29;20031;-66
2022/07/01 07:55:16;;;;;;;2.63;0.80;;;;;;;29.29;38.05;101504.47;4957353;28;20061;-66
2022/07/01 07:57:42;;;;;;;2.28;0.93;;;;;;;29.13;38.63;101505.09;4956047;28;20053;-66
2022/07/01 08:00:09;;;;;;;4.78;1.27;;;;;;;29.09;38.29;101506.63;4955984;28;20111;-66
2022/07/01 08:02:34;;;;;;;1.92;0.68;;;;;;;28.78;38.42;101498.63;4940051;29;20023;-66
2022/07/01 08:05:00;;;;;;;4.70;1.08;;;;;;;29.27;37.81;101509.38;4955969;29;20027;-66
2022/07/01 08:07:25;;;;;;;3.63;0.60;;;;;;;29.21;37.24;101504.78;4955990;29;20039;-66
2022/07/01 08:09:50;;;;;;;2.83;1.02;;;;;;;29.37;37.17;101498.59;4956309;29;20430;-66
2022/07/01 08:12:16;;;;;;;2.60;0.60;;;;;;;29.76;36.19;101499.03;4955611;29;20496;-66
2022/07/01 08:14:42;;;;;;;5.60;0.80;;;;;;;30.09;35.89;101504.84;4955910;29;20036;-66
2022/07/01 08:17:08;;;;;;;1.45;0.70;;;;;;;30.33;35.21;101500.97;4955766;29;20058;-66
2022/07/01 08:19:33;;;;;;;3.33;0.77;;;;;;;30.50;35.24;101510.22;4939676;29;20031;-66
2022/07/01 08:21:58;;;;;;;2.63;0.50;;;;;;;30.73;34.96;101508.47;4955588;29;20019;-65
2022/07/01 08:24:24;;;;;;;0.88;0.73;;;;;;;31.00;35.12;101515.97;4956559;28;20110;-65
2022/07/01 08:26:50;;;;;;;2.20;0.50;;;;;;;31.29;34.86;101515.97;4955573;29;20375;-66
2022/07/01 08:29:15;;;;;;;3.05;0.80;;;;;;;31.00;34.85;101526.22;4939526;29;20110;-66
2022/07/01 08:31:40;;;;;;;3.90;0.90;;;;;;;31.09;34.69;101541.34;4955463;29;20078;-66
2022/07/01 08:34:06;;;;;;;1.00;0.45;;;;;;;31.37;34.22;101530.25;4955476;29;20529;-66
2022/07/01 08:36:32;;;;;;;1.35;0.60;;;;;;;30.89;34.56;101536.22;4955513;29;20027;-66
2022/07/01 08:38:57;;;;;;;0.95;0.65;;;;;;;30.55;34.33;101543.53;4955303;29;20027;-66
2022/07/01 08:41:23;;;;;;;2.88;1.10;;;;;;;30.63;34.40;101535.94;4955376;29;20019;-66
2022/07/01 08:43:48;;;;;;;1.58;0.63;;;;;;;30.59;34.03;101538.34;4955141;28;20534;-66
2022/07/01 08:46:14;;;;;;;1.85;0.60;;;;;;;30.34;34.10;101521.16;4955260;29;20031;-66
2022/07/01 08:48:43;;;;;;;3.22;0.77;;;;;;;30.84;33.54;101533.34;4955114;29;20158;-66
2022/07/01 08:51:09;;;;;;;2.58;0.50;;;;;;;31.19;32.92;101536.00;4955135;29;20409;-66
2022/07/01 08:53:35;;;;;;;1.90;0.68;;;;;;;31.32;32.85;101541.25;4955057;29;20019;-66
2022/07/01 08:58:45;;;;;;;1.48;0.73;;;;;;;31.43;32.51;101532.03;4955149;29;20532;-66
2022/07/01 09:01:21;;;;;;;1.40;0.50;;;;;;;31.25;32.54;101543.31;4954767;28;20118;-66
2022/07/01 09:03:48;;;;;;;1.30;0.80;;;;;;;30.97;33.11;101555.22;4956133;28;20028;-66
2022/07/01 09:06:17;;;;;;;1.55;0.50;;;;;;;30.90;33.14;101556.44;4954848;28;20027;-67
2022/07/01 09:08:46;;;;;;;2.47;0.52;;;;;;;31.39;32.50;101558.53;4954862;29;20038;-66
2022/07/01 09:11:19;;;;;;;3.88;0.55;;;;;;;31.60;32.16;101560.59;4954791;29;20166;-66
2022/07/01 09:13:45;;;;;;;3.50;0.50;;;;;;;32.00;31.45;101566.00;4955837;28;20561;-66
2022/07/01 09:16:15;;;;;;;1.70;0.60;;;;;;;32.25;31.36;101562.81;4954632;29;20489;-66
2022/07/01 09:18:59;;;;;;;0.73;0.30;;;;;;;31.86;31.95;101556.34;4954675;29;20062;-66
2022/07/01 09:21:28;;;;;;;2.92;0.35;;;;;;;31.94;31.48;101557.88;4954606;29;20444;-66
2022/07/01 09:23:53;;;;;;;2.40;0.50;;;;;;;32.25;30.89;101560.03;4954558;29;20608;-66
2022/07/01 09:26:21;;;;;;;3.17;0.47;;;;;;;32.51;30.49;101566.78;4922692;29;20035;-66
2022/07/01 09:28:55;;;;;;;5.22;0.80;;;;;;;32.77;30.99;101557.75;4938764;29;20023;-66
2022/07/01 09:31:21;;;;;;;1.55;0.40;;;;;;;33.09;30.68;101557.88;4954379;29;20035;-66
2022/07/01 09:34:02;;;;;;;2.35;0.60;;;;;;;33.19;30.06;101558.84;4954455;29;20027;-66
2022/07/01 09:36:27;;;;;;;1.13;0.70;;;;;;;32.99;30.37;101557.75;4953858;28;20027;-67
2022/07/01 09:38:52;;;;;;;1.60;0.50;;;;;;;33.13;29.78;101561.81;4954340;28;20512;-67
2022/07/01 09:41:22;;;;;;;1.63;0.35;;;;;;;33.49;28.85;101557.47;4955432;28;20031;-66
2022/07/01 09:43:48;;;;;;;1.00;0.60;;;;;;;33.77;28.71;101562.78;4938243;29;20395;-67
2022/07/01 09:46:13;;;;;;;1.95;0.50;;;;;;;34.00;29.03;101559.63;4938202;29;20023;-66
2022/07/01 09:48:38;;;;;;;1.13;0.60;;;;;;;34.25;29.38;101567.34;4938075;29;20054;-66
2022/07/01 09:51:05;;;;;;;2.17;1.27;;;;;;;34.48;28.13;101578.03;4955500;28;20030;-66
2022/07/01 09:53:31;;;;;;;4.88;0.70;;;;;;;34.87;28.63;101581.38;4938192;29;20118;-67
2022/07/01 09:55:57;;;;;;;1.58;0.57;;;;;;;34.77;28.30;101572.94;4954189;29;20561;-67
2022/07/01 09:58:22;;;;;;;2.20;0.82;;;;;;;34.17;28.49;101576.19;4954115;29;20388;-67
2022/07/01 10:00:47;;;;;;;2.90;0.50;;;;;;;34.34;28.80;101579.66;4937941;29;20389;-66
2022/07/01 10:03:13;;;;;;;1.85;0.45;;;;;;;34.46;28.97;101583.91;4954055;29;20037;-67
2022/07/01 10:05:43;;;;;;;3.22;0.50;;;;;;;34.22;28.12;101576.22;4953991;29;20031;-66
2022/07/01 10:08:47;;;;;;;2.30;0.68;;;;;;;34.52;28.32;101590.34;4937878;29;20386;-67
2022/07/01 10:11:34;;;;;;;10.63;9.95;;;;;;;35.09;27.86;101585.63;4955042;28;20147;-67
2022/07/01 10:14:02;;;;;;;1999.90;999.90;;;;;;;35.62;27.02;101586.38;4953639;28;20059;-67
2022/07/01 10:16:27;;;;;;;4.03;0.80;;;;;;;36.70;25.90;101575.66;4937803;29;20027;-67
2022/07/01 10:18:55;;;;;;;0.85;0.65;;;;;;;38.04;24.36;101571.53;4937852;29;20389;-67
2022/07/01 10:21:28;;;;;;;3.65;0.70;;;;;;;38.99;23.71;101571.63;4953931;29;20106;-67
2022/07/01 10:24:14;;;;;;;2.60;2.50;;;;;;;38.82;24.15;101574.09;4953724;28;20034;-67
2022/07/01 10:26:40;;;;;;;2.45;2.30;;;;;;;38.31;24.44;101574.59;4954954;28;20050;-67
2022/07/01 10:29:32;;;;;;;2.30;1.25;;;;;;;37.80;24.14;101570.59;4953878;29;20523;-67
2022/07/01 10:32:22;;;;;;;1.00;0.90;;;;;;;37.47;24.25;101588.22;4953544;28;20441;-67
2022/07/01 10:34:48;;;;;;;1.48;0.80;;;;;;;37.35;24.27;101580.13;4954304;28;20413;-67
2022/07/01 10:37:16;;;;;;;1.70;1.20;;;;;;;37.42;24.71;101574.19;4937667;29;20122;-67
2022/07/01 10:40:02;;;;;;;1.77;0.93;;;;;;;37.59;23.92;101567.13;4937562;29;20447;-67
2022/07/01 10:42:33;;;;;;;2.53;1.30;;;;;;;37.84;24.05;101563.28;4969694;28;20019;-67
2022/07/01 10:45:01;;;;;;;2.25;1.08;;;;;;;37.93;24.49;101560.72;4937730;29;20023;-67
2022/07/01 10:47:27;;;;;;;5.32;1.15;;;;;;;38.04;24.52;101557.53;4955730;28;20023;-67
2022/07/01 10:50:03;;;;;;;1.80;1.23;;;;;;;38.26;23.55;101577.47;4957275;28;20027;-67
2022/07/01 10:52:28;;;;;;;1.85;1.23;;;;;;;38.45;24.48;101566.38;4941230;29;20019;-67
2022/07/01 10:54:56;;;;;;;8.43;7.85;;;;;;;38.69;23.73;101566.38;4941174;29;20034;-67
2022/07/01 10:57:25;;;;;;;2.22;1.98;;;;;;;38.79;22.92;101566.28;4957251;29;20030;-67
2022/07/01 10:59:52;;;;;;;4.15;3.95;;;;;;;38.83;23.29;101567.34;4957083;29;20082;-67
2022/07/01 11:02:22;;;;;;;1.35;0.90;;;;;;;38.84;22.87;101560.59;4941098;29;20409;-67
2022/07/01 11:04:48;;;;;;;3.85;0.32;;;;;;;38.86;22.33;101563.97;4940926;29;20031;-67
2022/07/01 11:07:14;;;;;;;1.08;0.50;;;;;;;38.13;24.02;101568.94;4941276;29;20057;-67
2022/07/01 11:09:39;;;;;;;2.28;0.20;;;;;;;37.44;23.62;101572.81;4957123;29;20074;-67
2022/07/01 11:12:06;;;;;;;3.35;0.52;;;;;;;36.72;24.29;101567.84;4956992;29;20027;-67
2022/07/01 11:14:40;;;;;;;4.07;0.40;;;;;;;36.84;24.14;101567.50;4940725;29;20134;-67
2022/07/01 11:17:06;;;;;;;2.45;0.40;;;;;;;37.12;24.33;101573.28;4956898;29;20109;-67
2022/07/01 11:19:32;;;;;;;2.05;0.30;;;;;;;36.76;23.97;101574.53;4956886;29;20027;-67
2022/07/01 11:21:57;;;;;;;0.88;0.22;;;;;;;36.54;24.24;101560.09;4956751;29;20035;-67
2022/07/01 11:24:23;;;;;;;0.50;0.30;;;;;;;37.12;23.93;101561.25;4940688;29;20030;-67
2022/07/01 11:26:49;;;;;;;2.13;0.40;;;;;;;37.49;23.71;101574.75;4956757;29;20065;-67
2022/07/01 11:29:19;;;;;;;0.93;0.38;;;;;;;38.02;23.39;101572.97;4940635;29;20029;-67
2022/07/01 11:31:45;;;;;;;2.60;0.55;;;;;;;38.43;22.99;101566.69;4956490;29;20027;-67